sensor_id;sensor_type;location;lat;lon;timestamp;P1;durP1;ratioP1;P2;durP2;ratioP2
44440;SDS011;30146;52.268;20.944;2023-04-06T00:00:50;12.40;;;6.00;;
44440;SDS011;30146;52.268;20.944;2023-04-06T00:03:21;16.10;;;7.10;;
44440;SDS011;30146;52.268;20.944;2023-04-06T00:05:52;11.60;;;6.20;;
44440;SDS011;30146;52.268;20.944;2023-04-06T00:08:23;14.90;;;6.70;;
44440;SDS011;30146;52.268;20.944;2023-04-06T00:10:54;11.30;;;6.30;;
44440;SDS011;30146;52.268;20.944;2023-04-06T00:13:25;12.00;;;6.50;;
44440;SDS011;30146;52.268;20.944;2023-04-06T00:15:55;11.20;;;6.80;;
44440;SDS011;30146;52.268;20.944;2023-04-06T00:18:26;9.40;;;6.10;;
44440;SDS011;30146;52.268;20.944;2023-04-06T00:20:57;13.30;;;6.30;;
44440;SDS011;30146;52.268;20.944;2023-04-06T00:23:28;11.40;;;6.60;;
44440;SDS011;30146;52.268;20.944;2023-04-06T00:25:59;12.30;;;6.40;;
44440;SDS011;30146;52.268;20.944;2023-04-06T00:28:29;10.70;;;6.30;;
44440;SDS011;30146;52.268;20.944;2023-04-06T00:31:00;10.50;;;6.30;;
44440;SDS011;30146;52.268;20.944;2023-04-06T00:33:31;8.40;;;4.90;;
44440;SDS011;30146;52.268;20.944;2023-04-06T00:36:03;9.40;;;5.70;;
44440;SDS011;30146;52.268;20.944;2023-04-06T00:38:34;9.00;;;5.40;;
44440;SDS011;30146;52.268;20.944;2023-04-06T00:41:05;8.90;;;5.30;;
44440;SDS011;30146;52.268;20.944;2023-04-06T00:43:36;11.70;;;4.90;;
44440;SDS011;30146;52.268;20.944;2023-04-06T00:46:07;6.10;;;4.50;;
44440;SDS011;30146;52.268;20.944;2023-04-06T00:48:38;5.50;;;4.30;;
44440;SDS011;30146;52.268;20.944;2023-04-06T00:51:09;8.00;;;4.20;;
44440;SDS011;30146;52.268;20.944;2023-04-06T00:53:40;6.60;;;4.40;;
44440;SDS011;30146;52.268;20.944;2023-04-06T00:56:11;6.60;;;4.20;;
44440;SDS011;30146;52.268;20.944;2023-04-06T00:58:49;6.60;;;4.40;;
44440;SDS011;30146;52.268;20.944;2023-04-06T01:01:21;7.00;;;3.80;;
44440;SDS011;30146;52.268;20.944;2023-04-06T01:03:52;8.40;;;4.90;;
44440;SDS011;30146;52.268;20.944;2023-04-06T01:06:23;8.00;;;4.10;;
44440;SDS011;30146;52.268;20.944;2023-04-06T01:09:01;7.00;;;4.60;;
44440;SDS011;30146;52.268;20.944;2023-04-06T01:11:32;6.30;;;4.00;;
44440;SDS011;30146;52.268;20.944;2023-04-06T01:14:05;7.00;;;4.00;;
44440;SDS011;30146;52.268;20.944;2023-04-06T01:16:47;7.70;;;4.90;;
44440;SDS011;30146;52.268;20.944;2023-04-06T01:19:21;8.30;;;4.80;;
44440;SDS011;30146;52.268;20.944;2023-04-06T01:21:53;7.90;;;4.50;;
44440;SDS011;30146;52.268;20.944;2023-04-06T01:24:30;6.70;;;4.20;;
44440;SDS011;30146;52.268;20.944;2023-04-06T01:27:01;9.00;;;5.00;;
44440;SDS011;30146;52.268;20.944;2023-04-06T01:29:52;6.80;;;4.40;;
44440;SDS011;30146;52.268;20.944;2023-04-06T01:32:34;10.30;;;4.50;;
44440;SDS011;30146;52.268;20.944;2023-04-06T01:35:07;8.60;;;4.70;;
44440;SDS011;30146;52.268;20.944;2023-04-06T01:37:43;11.20;;;5.00;;
44440;SDS011;30146;52.268;20.944;2023-04-06T01:40:18;7.70;;;5.10;;
44440;SDS011;30146;52.268;20.944;2023-04-06T01:42:50;8.40;;;5.50;;
44440;SDS011;30146;52.268;20.944;2023-04-06T01:48:32;7.70;;;4.50;;
44440;SDS011;30146;52.268;20.944;2023-04-06T01:51:09;13.70;;;5.10;;
44440;SDS011;30146;52.268;20.944;2023-04-06T01:53:46;7.20;;;4.40;;
44440;SDS011;30146;52.268;20.944;2023-04-06T01:56:18;5.40;;;4.50;;
44440;SDS011;30146;52.268;20.944;2023-04-06T01:59:08;7.20;;;4.40;;
44440;SDS011;30146;52.268;20.944;2023-04-06T02:01:41;6.70;;;4.60;;
44440;SDS011;30146;52.268;20.944;2023-04-06T02:04:13;8.90;;;5.00;;
44440;SDS011;30146;52.268;20.944;2023-04-06T02:06:45;8.00;;;5.30;;
44440;SDS011;30146;52.268;20.944;2023-04-06T02:09:17;7.20;;;4.20;;
44440;SDS011;30146;52.268;20.944;2023-04-06T02:11:48;10.80;;;6.20;;
44440;SDS011;30146;52.268;20.944;2023-04-06T02:14:19;7.20;;;4.10;;
44440;SDS011;30146;52.268;20.944;2023-04-06T02:16:51;10.30;;;5.00;;
44440;SDS011;30146;52.268;20.944;2023-04-06T02:19:23;8.30;;;5.30;;
44440;SDS011;30146;52.268;20.944;2023-04-06T02:21:54;9.90;;;5.70;;
44440;SDS011;30146;52.268;20.944;2023-04-06T02:24:25;8.30;;;5.30;;
44440;SDS011;30146;52.268;20.944;2023-04-06T02:26:57;10.70;;;6.00;;
44440;SDS011;30146;52.268;20.944;2023-04-06T02:29:28;9.70;;;5.60;;
44440;SDS011;30146;52.268;20.944;2023-04-06T02:32:00;11.30;;;5.80;;
44440;SDS011;30146;52.268;20.944;2023-04-06T02:34:32;11.30;;;6.60;;
44440;SDS011;30146;52.268;20.944;2023-04-06T02:37:03;10.70;;;5.90;;
44440;SDS011;30146;52.268;20.944;2023-04-06T02:39:34;14.40;;;7.20;;
44440;SDS011;30146;52.268;20.944;2023-04-06T02:42:07;12.80;;;7.30;;
44440;SDS011;30146;52.268;20.944;2023-04-06T02:44:38;14.50;;;6.80;;
44440;SDS011;30146;52.268;20.944;2023-04-06T02:47:10;12.80;;;7.40;;
44440;SDS011;30146;52.268;20.944;2023-04-06T02:49:42;12.80;;;6.90;;
44440;SDS011;30146;52.268;20.944;2023-04-06T02:52:16;11.70;;;7.70;;
44440;SDS011;30146;52.268;20.944;2023-04-06T02:54:47;14.20;;;6.80;;
44440;SDS011;30146;52.268;20.944;2023-04-06T02:57:23;15.50;;;6.60;;
44440;SDS011;30146;52.268;20.944;2023-04-06T02:59:55;12.30;;;7.40;;
44440;SDS011;30146;52.268;20.944;2023-04-06T03:02:33;16.00;;;7.10;;
44440;SDS011;30146;52.268;20.944;2023-04-06T03:07:40;12.40;;;6.20;;
44440;SDS011;30146;52.268;20.944;2023-04-06T03:10:28;15.40;;;7.60;;
44440;SDS011;30146;52.268;20.944;2023-04-06T03:12:59;15.90;;;7.20;;
44440;SDS011;30146;52.268;20.944;2023-04-06T03:15:43;11.90;;;6.70;;
44440;SDS011;30146;52.268;20.944;2023-04-06T03:18:20;15.20;;;7.50;;
44440;SDS011;30146;52.268;20.944;2023-04-06T03:20:53;17.10;;;7.70;;
44440;SDS011;30146;52.268;20.944;2023-04-06T03:23:29;15.10;;;8.50;;
44440;SDS011;30146;52.268;20.944;2023-04-06T03:26:01;12.10;;;7.20;;
44440;SDS011;30146;52.268;20.944;2023-04-06T03:28:33;20.40;;;8.10;;
44440;SDS011;30146;52.268;20.944;2023-04-06T03:31:05;13.20;;;7.50;;
44440;SDS011;30146;52.268;20.944;2023-04-06T03:33:59;17.40;;;7.90;;
44440;SDS011;30146;52.268;20.944;2023-04-06T03:36:32;14.00;;;7.30;;
44440;SDS011;30146;52.268;20.944;2023-04-06T03:39:04;13.70;;;7.80;;
44440;SDS011;30146;52.268;20.944;2023-04-06T03:41:37;23.50;;;9.00;;
44440;SDS011;30146;52.268;20.944;2023-04-06T03:44:35;17.70;;;7.90;;
44440;SDS011;30146;52.268;20.944;2023-04-06T03:47:06;13.70;;;8.30;;
44440;SDS011;30146;52.268;20.944;2023-04-06T03:49:37;21.00;;;9.50;;
44440;SDS011;30146;52.268;20.944;2023-04-06T03:52:09;17.90;;;8.50;;
44440;SDS011;30146;52.268;20.944;2023-04-06T03:54:40;15.70;;;8.30;;
44440;SDS011;30146;52.268;20.944;2023-04-06T03:57:11;16.70;;;9.30;;
44440;SDS011;30146;52.268;20.944;2023-04-06T03:59:43;16.00;;;8.00;;
44440;SDS011;30146;52.268;20.944;2023-04-06T04:02:13;19.00;;;8.50;;
44440;SDS011;30146;52.268;20.944;2023-04-06T04:04:45;23.90;;;12.30;;
44440;SDS011;30146;52.268;20.944;2023-04-06T04:07:16;25.50;;;10.70;;
44440;SDS011;30146;52.268;20.944;2023-04-06T04:09:46;22.70;;;11.00;;
44440;SDS011;30146;52.268;20.944;2023-04-06T04:12:18;20.20;;;9.00;;
44440;SDS011;30146;52.268;20.944;2023-04-06T04:14:49;19.40;;;8.30;;
44440;SDS011;30146;52.268;20.944;2023-04-06T04:17:21;20.60;;;10.30;;
44440;SDS011;30146;52.268;20.944;2023-04-06T04:19:53;17.90;;;8.00;;
44440;SDS011;30146;52.268;20.944;2023-04-06T04:22:25;16.90;;;9.00;;
44440;SDS011;30146;52.268;20.944;2023-04-06T04:24:57;15.30;;;7.90;;
44440;SDS011;30146;52.268;20.944;2023-04-06T04:27:30;15.90;;;8.30;;
44440;SDS011;30146;52.268;20.944;2023-04-06T04:30:01;20.70;;;10.10;;
44440;SDS011;30146;52.268;20.944;2023-04-06T04:32:34;24.10;;;11.80;;
44440;SDS011;30146;52.268;20.944;2023-04-06T04:35:06;22.60;;;9.60;;
44440;SDS011;30146;52.268;20.944;2023-04-06T04:37:41;13.30;;;7.70;;
44440;SDS011;30146;52.268;20.944;2023-04-06T04:40:12;16.20;;;8.80;;
44440;SDS011;30146;52.268;20.944;2023-04-06T04:42:49;19.40;;;7.90;;
44440;SDS011;30146;52.268;20.944;2023-04-06T04:45:25;14.30;;;8.60;;
44440;SDS011;30146;52.268;20.944;2023-04-06T04:47:56;15.80;;;9.20;;
44440;SDS011;30146;52.268;20.944;2023-04-06T04:50:31;17.10;;;8.40;;
44440;SDS011;30146;52.268;20.944;2023-04-06T04:53:02;25.90;;;12.40;;
44440;SDS011;30146;52.268;20.944;2023-04-06T04:55:34;18.20;;;9.20;;
44440;SDS011;30146;52.268;20.944;2023-04-06T04:58:06;14.60;;;8.80;;
44440;SDS011;30146;52.268;20.944;2023-04-06T05:00:55;14.70;;;8.30;;
44440;SDS011;30146;52.268;20.944;2023-04-06T05:03:27;13.40;;;7.70;;
44440;SDS011;30146;52.268;20.944;2023-04-06T05:06:05;12.70;;;7.00;;
44440;SDS011;30146;52.268;20.944;2023-04-06T05:08:40;13.40;;;7.30;;
44440;SDS011;30146;52.268;20.944;2023-04-06T05:11:12;13.90;;;7.50;;
44440;SDS011;30146;52.268;20.944;2023-04-06T05:13:46;16.10;;;7.40;;
44440;SDS011;30146;52.268;20.944;2023-04-06T05:16:20;11.70;;;6.10;;
44440;SDS011;30146;52.268;20.944;2023-04-06T05:18:51;13.80;;;6.90;;
44440;SDS011;30146;52.268;20.944;2023-04-06T05:21:27;12.30;;;7.60;;
44440;SDS011;30146;52.268;20.944;2023-04-06T05:24:02;15.60;;;7.00;;
44440;SDS011;30146;52.268;20.944;2023-04-06T05:26:34;11.60;;;6.90;;
44440;SDS011;30146;52.268;20.944;2023-04-06T05:29:10;18.30;;;10.30;;
44440;SDS011;30146;52.268;20.944;2023-04-06T05:31:41;18.50;;;9.50;;
44440;SDS011;30146;52.268;20.944;2023-04-06T05:34:13;11.40;;;7.50;;
44440;SDS011;30146;52.268;20.944;2023-04-06T05:36:47;13.90;;;6.30;;
44440;SDS011;30146;52.268;20.944;2023-04-06T05:39:21;17.40;;;6.50;;
44440;SDS011;30146;52.268;20.944;2023-04-06T05:41:53;9.40;;;6.30;;
44440;SDS011;30146;52.268;20.944;2023-04-06T05:44:46;14.30;;;6.70;;
44440;SDS011;30146;52.268;20.944;2023-04-06T05:47:22;12.70;;;6.20;;
44440;SDS011;30146;52.268;20.944;2023-04-06T05:50:03;12.60;;;6.20;;
44440;SDS011;30146;52.268;20.944;2023-04-06T05:52:38;23.20;;;13.30;;
44440;SDS011;30146;52.268;20.944;2023-04-06T05:55:12;13.60;;;8.40;;
44440;SDS011;30146;52.268;20.944;2023-04-06T05:57:51;10.80;;;6.60;;
44440;SDS011;30146;52.268;20.944;2023-04-06T06:00:22;9.30;;;5.90;;
44440;SDS011;30146;52.268;20.944;2023-04-06T06:02:59;8.60;;;5.60;;
44440;SDS011;30146;52.268;20.944;2023-04-06T06:05:34;10.80;;;6.00;;
44440;SDS011;30146;52.268;20.944;2023-04-06T06:08:18;11.70;;;6.00;;
44440;SDS011;30146;52.268;20.944;2023-04-06T06:10:53;13.90;;;6.30;;
44440;SDS011;30146;52.268;20.944;2023-04-06T06:13:25;14.70;;;8.80;;
44440;SDS011;30146;52.268;20.944;2023-04-06T06:15:58;12.90;;;7.10;;
44440;SDS011;30146;52.268;20.944;2023-04-06T06:18:36;8.60;;;6.50;;
44440;SDS011;30146;52.268;20.944;2023-04-06T06:21:07;10.40;;;5.10;;
44440;SDS011;30146;52.268;20.944;2023-04-06T06:23:41;8.70;;;5.20;;
44440;SDS011;30146;52.268;20.944;2023-04-06T06:26:15;11.50;;;5.50;;
44440;SDS011;30146;52.268;20.944;2023-04-06T06:28:48;9.90;;;5.20;;
44440;SDS011;30146;52.268;20.944;2023-04-06T06:31:21;11.00;;;4.90;;
44440;SDS011;30146;52.268;20.944;2023-04-06T06:33:54;11.00;;;5.50;;
44440;SDS011;30146;52.268;20.944;2023-04-06T06:36:26;8.80;;;4.50;;
44440;SDS011;30146;52.268;20.944;2023-04-06T06:38:59;6.50;;;4.30;;
44440;SDS011;30146;52.268;20.944;2023-04-06T06:41:40;17.30;;;5.40;;
44440;SDS011;30146;52.268;20.944;2023-04-06T06:44:12;10.20;;;4.90;;
44440;SDS011;30146;52.268;20.944;2023-04-06T06:46:43;7.70;;;4.00;;
44440;SDS011;30146;52.268;20.944;2023-04-06T06:49:25;10.90;;;4.40;;
44440;SDS011;30146;52.268;20.944;2023-04-06T06:51:57;6.50;;;4.40;;
44440;SDS011;30146;52.268;20.944;2023-04-06T06:54:32;6.90;;;4.60;;
44440;SDS011;30146;52.268;20.944;2023-04-06T06:57:08;7.40;;;4.10;;
44440;SDS011;30146;52.268;20.944;2023-04-06T06:59:41;7.50;;;4.30;;
44440;SDS011;30146;52.268;20.944;2023-04-06T07:02:13;8.50;;;4.70;;
44440;SDS011;30146;52.268;20.944;2023-04-06T07:04:49;6.40;;;4.00;;
44440;SDS011;30146;52.268;20.944;2023-04-06T07:07:21;6.60;;;4.50;;
44440;SDS011;30146;52.268;20.944;2023-04-06T07:09:52;8.20;;;4.10;;
44440;SDS011;30146;52.268;20.944;2023-04-06T07:12:23;7.20;;;4.40;;
44440;SDS011;30146;52.268;20.944;2023-04-06T07:14:54;7.50;;;4.70;;
44440;SDS011;30146;52.268;20.944;2023-04-06T07:17:25;6.60;;;4.70;;
44440;SDS011;30146;52.268;20.944;2023-04-06T07:19:57;6.20;;;4.20;;
44440;SDS011;30146;52.268;20.944;2023-04-06T07:22:31;12.10;;;4.40;;
44440;SDS011;30146;52.268;20.944;2023-04-06T07:25:03;6.10;;;3.80;;
44440;SDS011;30146;52.268;20.944;2023-04-06T07:27:34;10.40;;;6.40;;
44440;SDS011;30146;52.268;20.944;2023-04-06T07:30:09;9.50;;;5.50;;
44440;SDS011;30146;52.268;20.944;2023-04-06T07:32:40;9.10;;;4.40;;
44440;SDS011;30146;52.268;20.944;2023-04-06T07:35:14;14.40;;;4.50;;
44440;SDS011;30146;52.268;20.944;2023-04-06T07:37:45;9.90;;;4.60;;
44440;SDS011;30146;52.268;20.944;2023-04-06T07:40:18;9.40;;;4.30;;
44440;SDS011;30146;52.268;20.944;2023-04-06T07:43:00;9.10;;;4.20;;
44440;SDS011;30146;52.268;20.944;2023-04-06T07:45:31;6.40;;;3.70;;
44440;SDS011;30146;52.268;20.944;2023-04-06T07:48:03;7.20;;;4.00;;
44440;SDS011;30146;52.268;20.944;2023-04-06T07:50:35;6.30;;;4.10;;
44440;SDS011;30146;52.268;20.944;2023-04-06T07:53:06;6.30;;;4.00;;
44440;SDS011;30146;52.268;20.944;2023-04-06T07:55:38;7.50;;;4.00;;
44440;SDS011;30146;52.268;20.944;2023-04-06T07:58:11;6.70;;;4.80;;
44440;SDS011;30146;52.268;20.944;2023-04-06T08:00:42;18.20;;;7.20;;
44440;SDS011;30146;52.268;20.944;2023-04-06T08:03:13;5.80;;;4.40;;
44440;SDS011;30146;52.268;20.944;2023-04-06T08:05:46;6.70;;;3.60;;
44440;SDS011;30146;52.268;20.944;2023-04-06T08:08:17;6.10;;;4.10;;
44440;SDS011;30146;52.268;20.944;2023-04-06T08:10:50;5.50;;;3.80;;
44440;SDS011;30146;52.268;20.944;2023-04-06T08:13:21;4.70;;;3.40;;
44440;SDS011;30146;52.268;20.944;2023-04-06T08:18:50;8.50;;;5.20;;
44440;SDS011;30146;52.268;20.944;2023-04-06T08:21:23;8.00;;;3.90;;
44440;SDS011;30146;52.268;20.944;2023-04-06T08:23:55;6.00;;;3.30;;
44440;SDS011;30146;52.268;20.944;2023-04-06T08:29:58;9.20;;;3.10;;
44440;SDS011;30146;52.268;20.944;2023-04-06T08:32:29;9.70;;;4.20;;
44440;SDS011;30146;52.268;20.944;2023-04-06T08:35:01;10.40;;;3.60;;
44440;SDS011;30146;52.268;20.944;2023-04-06T08:37:35;6.80;;;3.70;;
44440;SDS011;30146;52.268;20.944;2023-04-06T08:43:37;6.00;;;4.00;;
44440;SDS011;30146;52.268;20.944;2023-04-06T08:49:08;5.10;;;3.10;;
44440;SDS011;30146;52.268;20.944;2023-04-06T08:51:43;6.80;;;3.70;;
44440;SDS011;30146;52.268;20.944;2023-04-06T08:54:15;6.70;;;4.20;;
44440;SDS011;30146;52.268;20.944;2023-04-06T08:56:46;6.60;;;3.50;;
44440;SDS011;30146;52.268;20.944;2023-04-06T08:59:18;10.10;;;4.30;;
44440;SDS011;30146;52.268;20.944;2023-04-06T09:01:49;6.70;;;4.20;;
44440;SDS011;30146;52.268;20.944;2023-04-06T09:04:31;5.50;;;4.10;;
44440;SDS011;30146;52.268;20.944;2023-04-06T09:07:07;5.50;;;4.40;;
44440;SDS011;30146;52.268;20.944;2023-04-06T09:09:42;4.90;;;3.90;;
44440;SDS011;30146;52.268;20.944;2023-04-06T09:12:24;5.60;;;4.00;;
44440;SDS011;30146;52.268;20.944;2023-04-06T09:14:56;6.90;;;3.30;;
44440;SDS011;30146;52.268;20.944;2023-04-06T09:17:29;14.50;;;4.70;;
44440;SDS011;30146;52.268;20.944;2023-04-06T09:22:55;9.00;;;4.40;;
44440;SDS011;30146;52.268;20.944;2023-04-06T09:25:26;6.00;;;4.20;;
44440;SDS011;30146;52.268;20.944;2023-04-06T09:28:00;10.80;;;7.60;;
44440;SDS011;30146;52.268;20.944;2023-04-06T09:30:36;6.00;;;4.30;;
44440;SDS011;30146;52.268;20.944;2023-04-06T09:33:23;6.30;;;4.10;;
44440;SDS011;30146;52.268;20.944;2023-04-06T09:36:19;7.00;;;4.70;;
44440;SDS011;30146;52.268;20.944;2023-04-06T09:38:59;6.70;;;3.90;;
44440;SDS011;30146;52.268;20.944;2023-04-06T09:41:33;5.80;;;4.00;;
44440;SDS011;30146;52.268;20.944;2023-04-06T09:44:08;5.60;;;4.20;;
44440;SDS011;30146;52.268;20.944;2023-04-06T09:46:45;5.30;;;4.10;;
44440;SDS011;30146;52.268;20.944;2023-04-06T09:49:27;8.20;;;4.30;;
44440;SDS011;30146;52.268;20.944;2023-04-06T09:52:03;7.00;;;4.10;;
44440;SDS011;30146;52.268;20.944;2023-04-06T09:54:40;6.40;;;4.30;;
44440;SDS011;30146;52.268;20.944;2023-04-06T09:57:15;6.50;;;3.80;;
44440;SDS011;30146;52.268;20.944;2023-04-06T09:59:56;8.60;;;4.10;;
44440;SDS011;30146;52.268;20.944;2023-04-06T10:02:38;9.90;;;4.10;;
44440;SDS011;30146;52.268;20.944;2023-04-06T10:05:17;6.80;;;3.90;;
44440;SDS011;30146;52.268;20.944;2023-04-06T10:07:53;10.30;;;4.60;;
44440;SDS011;30146;52.268;20.944;2023-04-06T10:10:28;7.80;;;5.30;;
44440;SDS011;30146;52.268;20.944;2023-04-06T10:12:59;8.80;;;5.30;;
44440;SDS011;30146;52.268;20.944;2023-04-06T10:15:37;6.50;;;4.30;;
44440;SDS011;30146;52.268;20.944;2023-04-06T10:18:09;5.20;;;4.10;;
44440;SDS011;30146;52.268;20.944;2023-04-06T10:20:42;5.10;;;4.30;;
44440;SDS011;30146;52.268;20.944;2023-04-06T10:23:21;7.20;;;5.70;;
44440;SDS011;30146;52.268;20.944;2023-04-06T10:31:51;10.30;;;3.90;;
44440;SDS011;30146;52.268;20.944;2023-04-06T10:38:06;8.40;;;4.50;;
44440;SDS011;30146;52.268;20.944;2023-04-06T10:40:38;10.20;;;4.60;;
44440;SDS011;30146;52.268;20.944;2023-04-06T10:43:57;6.30;;;4.00;;
44440;SDS011;30146;52.268;20.944;2023-04-06T10:49:10;8.40;;;4.20;;
44440;SDS011;30146;52.268;20.944;2023-04-06T10:51:42;8.00;;;4.30;;
44440;SDS011;30146;52.268;20.944;2023-04-06T10:54:13;6.20;;;4.50;;
44440;SDS011;30146;52.268;20.944;2023-04-06T10:56:47;12.50;;;4.30;;
44440;SDS011;30146;52.268;20.944;2023-04-06T10:59:20;6.70;;;4.50;;
44440;SDS011;30146;52.268;20.944;2023-04-06T11:02:02;8.70;;;4.10;;
44440;SDS011;30146;52.268;20.944;2023-04-06T11:04:41;7.00;;;4.70;;
44440;SDS011;30146;52.268;20.944;2023-04-06T11:07:24;9.80;;;4.50;;
44440;SDS011;30146;52.268;20.944;2023-04-06T11:10:03;6.90;;;4.10;;
44440;SDS011;30146;52.268;20.944;2023-04-06T11:12:46;6.70;;;4.60;;
44440;SDS011;30146;52.268;20.944;2023-04-06T11:15:25;6.90;;;4.90;;
44440;SDS011;30146;52.268;20.944;2023-04-06T11:18:12;7.20;;;4.50;;
44440;SDS011;30146;52.268;20.944;2023-04-06T11:20:52;6.90;;;4.50;;
44440;SDS011;30146;52.268;20.944;2023-04-06T11:23:29;9.20;;;5.70;;
44440;SDS011;30146;52.268;20.944;2023-04-06T11:26:00;11.30;;;5.70;;
44440;SDS011;30146;52.268;20.944;2023-04-06T11:28:33;9.30;;;6.10;;
44440;SDS011;30146;52.268;20.944;2023-04-06T11:31:13;6.00;;;4.70;;
44440;SDS011;30146;52.268;20.944;2023-04-06T11:34:46;6.50;;;5.00;;
44440;SDS011;30146;52.268;20.944;2023-04-06T11:37:18;9.80;;;6.00;;
44440;SDS011;30146;52.268;20.944;2023-04-06T11:39:53;19.50;;;13.00;;
44440;SDS011;30146;52.268;20.944;2023-04-06T11:45:40;10.00;;;6.10;;
44440;SDS011;30146;52.268;20.944;2023-04-06T11:48:25;7.60;;;5.90;;
44440;SDS011;30146;52.268;20.944;2023-04-06T11:50:57;9.20;;;6.30;;
44440;SDS011;30146;52.268;20.944;2023-04-06T11:53:29;10.20;;;5.90;;
44440;SDS011;30146;52.268;20.944;2023-04-06T11:56:59;8.30;;;5.80;;
44440;SDS011;30146;52.268;20.944;2023-04-06T11:59:31;7.70;;;5.50;;
44440;SDS011;30146;52.268;20.944;2023-04-06T12:02:05;7.00;;;5.30;;
44440;SDS011;30146;52.268;20.944;2023-04-06T12:04:37;8.50;;;5.90;;
44440;SDS011;30146;52.268;20.944;2023-04-06T12:07:08;9.50;;;5.60;;
44440;SDS011;30146;52.268;20.944;2023-04-06T12:09:39;9.30;;;5.90;;
44440;SDS011;30146;52.268;20.944;2023-04-06T12:12:10;7.90;;;5.50;;
44440;SDS011;30146;52.268;20.944;2023-04-06T12:17:15;8.10;;;6.10;;
44440;SDS011;30146;52.268;20.944;2023-04-06T12:19:47;8.00;;;5.90;;
44440;SDS011;30146;52.268;20.944;2023-04-06T12:22:18;8.10;;;6.40;;
44440;SDS011;30146;52.268;20.944;2023-04-06T12:24:50;9.60;;;5.90;;
44440;SDS011;30146;52.268;20.944;2023-04-06T12:27:21;8.60;;;5.80;;
44440;SDS011;30146;52.268;20.944;2023-04-06T12:29:53;8.40;;;5.60;;
44440;SDS011;30146;52.268;20.944;2023-04-06T12:32:32;8.70;;;5.60;;
44440;SDS011;30146;52.268;20.944;2023-04-06T12:35:03;8.70;;;6.30;;
44440;SDS011;30146;52.268;20.944;2023-04-06T12:37:40;7.00;;;5.10;;
44440;SDS011;30146;52.268;20.944;2023-04-06T12:43:09;6.50;;;4.90;;
44440;SDS011;30146;52.268;20.944;2023-04-06T12:45:41;9.70;;;5.40;;
44440;SDS011;30146;52.268;20.944;2023-04-06T12:48:12;9.50;;;5.90;;
44440;SDS011;30146;52.268;20.944;2023-04-06T12:50:55;8.90;;;5.90;;
44440;SDS011;30146;52.268;20.944;2023-04-06T12:53:27;7.60;;;4.80;;
44440;SDS011;30146;52.268;20.944;2023-04-06T12:56:13;7.90;;;5.50;;
44440;SDS011;30146;52.268;20.944;2023-04-06T12:58:45;7.70;;;5.10;;
44440;SDS011;30146;52.268;20.944;2023-04-06T13:01:16;8.20;;;4.90;;
44440;SDS011;30146;52.268;20.944;2023-04-06T13:03:49;8.00;;;5.50;;
44440;SDS011;30146;52.268;20.944;2023-04-06T13:06:24;10.30;;;6.20;;
44440;SDS011;30146;52.268;20.944;2023-04-06T13:08:56;18.90;;;10.90;;
44440;SDS011;30146;52.268;20.944;2023-04-06T13:11:27;9.40;;;5.40;;
44440;SDS011;30146;52.268;20.944;2023-04-06T13:13:59;8.90;;;6.10;;
44440;SDS011;30146;52.268;20.944;2023-04-06T13:16:30;6.50;;;4.80;;
44440;SDS011;30146;52.268;20.944;2023-04-06T13:19:01;5.80;;;4.30;;
44440;SDS011;30146;52.268;20.944;2023-04-06T13:21:32;8.30;;;4.90;;
44440;SDS011;30146;52.268;20.944;2023-04-06T13:24:04;7.80;;;4.70;;
44440;SDS011;30146;52.268;20.944;2023-04-06T13:26:35;7.80;;;5.10;;
44440;SDS011;30146;52.268;20.944;2023-04-06T13:29:06;6.70;;;5.50;;
44440;SDS011;30146;52.268;20.944;2023-04-06T13:31:38;9.30;;;4.90;;
44440;SDS011;30146;52.268;20.944;2023-04-06T13:34:09;6.70;;;4.60;;
44440;SDS011;30146;52.268;20.944;2023-04-06T13:36:40;6.40;;;5.00;;
44440;SDS011;30146;52.268;20.944;2023-04-06T13:39:12;7.60;;;4.60;;
44440;SDS011;30146;52.268;20.944;2023-04-06T13:41:43;7.00;;;4.90;;
44440;SDS011;30146;52.268;20.944;2023-04-06T13:44:20;6.70;;;4.60;;
44440;SDS011;30146;52.268;20.944;2023-04-06T13:46:52;6.70;;;5.00;;
44440;SDS011;30146;52.268;20.944;2023-04-06T13:49:41;8.80;;;5.20;;
44440;SDS011;30146;52.268;20.944;2023-04-06T13:52:12;7.10;;;5.10;;
44440;SDS011;30146;52.268;20.944;2023-04-06T13:54:43;7.20;;;5.10;;
44440;SDS011;30146;52.268;20.944;2023-04-06T13:57:14;5.70;;;4.60;;
44440;SDS011;30146;52.268;20.944;2023-04-06T13:59:46;8.70;;;4.40;;
44440;SDS011;30146;52.268;20.944;2023-04-06T14:02:17;8.10;;;4.50;;
44440;SDS011;30146;52.268;20.944;2023-04-06T14:04:51;7.70;;;5.10;;
44440;SDS011;30146;52.268;20.944;2023-04-06T14:07:22;8.00;;;5.00;;
44440;SDS011;30146;52.268;20.944;2023-04-06T14:12:28;9.60;;;4.50;;
44440;SDS011;30146;52.268;20.944;2023-04-06T14:14:59;7.00;;;4.80;;
44440;SDS011;30146;52.268;20.944;2023-04-06T14:17:30;8.90;;;4.90;;
44440;SDS011;30146;52.268;20.944;2023-04-06T14:20:02;6.70;;;4.60;;
44440;SDS011;30146;52.268;20.944;2023-04-06T14:22:34;6.10;;;4.60;;
44440;SDS011;30146;52.268;20.944;2023-04-06T14:25:06;8.10;;;5.60;;
44440;SDS011;30146;52.268;20.944;2023-04-06T14:27:39;7.00;;;4.90;;
44440;SDS011;30146;52.268;20.944;2023-04-06T14:30:12;9.60;;;5.30;;
44440;SDS011;30146;52.268;20.944;2023-04-06T14:32:51;8.60;;;4.80;;
44440;SDS011;30146;52.268;20.944;2023-04-06T14:35:25;8.20;;;4.90;;
44440;SDS011;30146;52.268;20.944;2023-04-06T14:38:24;7.90;;;5.10;;
44440;SDS011;30146;52.268;20.944;2023-04-06T14:41:00;6.60;;;4.80;;
44440;SDS011;30146;52.268;20.944;2023-04-06T14:43:31;8.20;;;5.20;;
44440;SDS011;30146;52.268;20.944;2023-04-06T14:46:26;9.10;;;5.10;;
44440;SDS011;30146;52.268;20.944;2023-04-06T14:49:00;9.50;;;5.00;;
44440;SDS011;30146;52.268;20.944;2023-04-06T14:51:34;8.00;;;5.40;;
44440;SDS011;30146;52.268;20.944;2023-04-06T14:54:14;9.90;;;4.80;;
44440;SDS011;30146;52.268;20.944;2023-04-06T14:56:47;7.00;;;5.10;;
44440;SDS011;30146;52.268;20.944;2023-04-06T14:59:19;7.90;;;5.40;;
44440;SDS011;30146;52.268;20.944;2023-04-06T15:01:50;11.70;;;5.30;;
44440;SDS011;30146;52.268;20.944;2023-04-06T15:04:21;10.30;;;5.40;;
44440;SDS011;30146;52.268;20.944;2023-04-06T15:06:56;5.80;;;5.20;;
44440;SDS011;30146;52.268;20.944;2023-04-06T15:09:27;10.10;;;6.50;;
44440;SDS011;30146;52.268;20.944;2023-04-06T15:12:14;10.40;;;5.80;;
44440;SDS011;30146;52.268;20.944;2023-04-06T15:14:45;10.30;;;5.90;;
44440;SDS011;30146;52.268;20.944;2023-04-06T15:17:16;11.80;;;6.20;;
44440;SDS011;30146;52.268;20.944;2023-04-06T15:19:48;10.70;;;6.80;;
44440;SDS011;30146;52.268;20.944;2023-04-06T15:22:26;10.90;;;6.00;;
44440;SDS011;30146;52.268;20.944;2023-04-06T15:24:58;12.30;;;6.80;;
44440;SDS011;30146;52.268;20.944;2023-04-06T15:27:29;8.40;;;5.90;;
44440;SDS011;30146;52.268;20.944;2023-04-06T15:30:04;11.70;;;6.60;;
44440;SDS011;30146;52.268;20.944;2023-04-06T15:32:36;9.80;;;5.20;;
44440;SDS011;30146;52.268;20.944;2023-04-06T15:35:11;14.80;;;5.50;;
44440;SDS011;30146;52.268;20.944;2023-04-06T15:37:48;7.90;;;5.90;;
44440;SDS011;30146;52.268;20.944;2023-04-06T15:40:21;12.80;;;6.10;;
44440;SDS011;30146;52.268;20.944;2023-04-06T15:42:53;10.10;;;6.00;;
44440;SDS011;30146;52.268;20.944;2023-04-06T15:45:24;8.70;;;5.90;;
44440;SDS011;30146;52.268;20.944;2023-04-06T15:47:59;11.80;;;7.00;;
44440;SDS011;30146;52.268;20.944;2023-04-06T15:50:33;10.90;;;7.60;;
44440;SDS011;30146;52.268;20.944;2023-04-06T15:53:04;8.60;;;5.40;;
44440;SDS011;30146;52.268;20.944;2023-04-06T15:55:35;8.60;;;5.90;;